Time;durP1;ratioP1;P1;durP2;ratioP2;P2;SDS_P1;SDS_P2;PMS_P1;PMS_P2;Temp;Humidity;BMP_temperature;BMP_pressure;BME280_temperature;BME280_humidity;BME280_pressure;Samples;Min_cycle;Max_cycle;Signal;HPM_P1;HPM_P2
2021/05/14 00:01:49;;;;;;;11.13;7.57;;;10.40;99.90;;;;;;6297234;22;20168;-79
2021/05/14 00:04:15;;;;;;;8.73;7.80;;;10.40;99.90;;;;;;6297345;22;20192;-82
2021/05/14 00:06:41;;;;;;;13.07;8.13;;;10.40;99.90;;;;;;6297339;22;20207;-78
2021/05/14 00:09:08;;;;;;;12.17;7.67;;;10.40;99.90;;;;;;6295207;22;20168;-78
2021/05/14 00:11:35;;;;;;;8.93;7.80;;;10.40;99.90;;;;;;6295786;22;20180;-78
2021/05/14 00:14:01;;;;;;;8.63;7.77;;;10.40;99.90;;;;;;6297378;22;20199;-82
2021/05/14 00:16:27;;;;;;;8.93;7.20;;;10.40;99.90;;;;;;6295720;22;20168;-81
2021/05/14 00:18:53;;;;;;;10.97;7.17;;;10.30;99.90;;;;;;6295431;22;20194;-79
2021/05/14 00:21:20;;;;;;;9.83;7.07;;;10.30;99.90;;;;;;6296883;22;20172;-81
2021/05/14 00:23:46;;;;;;;9.10;6.70;;;10.30;99.90;;;;;;6295847;22;20203;-77
2021/05/14 00:26:12;;;;;;;7.50;6.67;;;10.30;99.90;;;;;;6297312;22;20200;-81
2021/05/14 00:28:39;;;;;;;8.37;6.77;;;10.30;99.90;;;;;;6296767;22;20183;-81
2021/05/14 00:31:06;;;;;;;8.30;7.50;;;10.30;99.90;;;;;;6295993;22;20253;-80
2021/05/14 00:33:32;;;;;;;13.40;7.90;;;10.30;99.90;;;;;;6269862;22;20229;-80
2021/05/14 00:35:59;;;;;;;9.13;7.60;;;10.30;99.90;;;;;;6297100;22;20172;-79
2021/05/14 00:38:25;;;;;;;8.60;7.60;;;10.20;99.90;;;;;;6295498;22;20183;-77
2021/05/14 00:40:51;;;;;;;8.27;7.33;;;10.20;99.90;;;;;;6295811;22;20197;-78
2021/05/14 00:43:17;;;;;;;8.53;6.90;;;10.20;99.90;;;;;;6296569;22;20172;-82
2021/05/14 00:45:44;;;;;;;12.60;7.47;;;10.20;99.90;;;;;;6295760;22;20175;-81
2021/05/14 00:48:11;;;;;;;9.27;7.23;;;10.20;99.90;;;;;;6296184;22;20168;-78
2021/05/14 00:50:37;;;;;;;7.53;6.50;;;10.20;99.90;;;;;;6295881;22;20172;-77
2021/05/14 00:53:04;;;;;;;11.63;8.10;;;10.20;99.90;;;;;;6295573;22;20262;-77
2021/05/14 00:55:31;;;;;;;9.43;7.27;;;10.20;99.90;;;;;;6295850;22;20180;-77
2021/05/14 00:57:57;;;;;;;8.50;7.47;;;10.20;99.90;;;;;;6296214;22;20233;-78
2021/05/14 01:00:24;;;;;;;9.07;7.77;;;10.20;99.90;;;;;;6293953;22;20172;-81
2021/05/14 01:02:52;;;;;;;7.67;6.90;;;10.10;99.90;;;;;;6294943;22;20168;-76
2021/05/14 01:05:19;;;;;;;10.53;7.70;;;10.10;99.90;;;;;;6294919;22;20200;-78
2021/05/14 01:07:45;;;;;;;8.20;7.27;;;10.10;99.90;;;;;;6294789;22;20560;-81
2021/05/14 01:10:12;;;;;;;8.87;7.00;;;10.10;99.90;;;;;;6294823;22;20493;-76
2021/05/14 01:12:38;;;;;;;8.00;7.20;;;10.10;99.90;;;;;;6294700;22;20172;-78
2021/05/14 01:15:06;;;;;;;11.00;8.27;;;10.10;99.90;;;;;;6294149;22;20200;-80
2021/05/14 01:17:33;;;;;;;8.90;7.87;;;10.20;99.90;;;;;;6295203;22;20631;-77
2021/05/14 01:20:01;;;;;;;9.17;7.60;;;10.20;99.90;;;;;;6294682;22;20633;-78
2021/05/14 01:22:28;;;;;;;8.83;8.00;;;10.20;99.90;;;;;;6295804;22;20176;-78
2021/05/14 01:24:55;;;;;;;11.00;8.93;;;10.20;99.90;;;;;;6294638;22;20584;-78
2021/05/14 01:27:21;;;;;;;10.87;8.40;;;10.20;99.90;;;;;;6294827;22;20168;-78
2021/05/14 01:29:48;;;;;;;10.37;8.30;;;10.20;99.90;;;;;;6294620;22;20176;-77
2021/05/14 01:32:15;;;;;;;10.57;8.10;;;10.10;99.90;;;;;;6295014;22;20172;-78
2021/05/14 01:34:41;;;;;;;8.97;8.07;;;10.10;99.90;;;;;;6292993;22;20172;-77
2021/05/14 01:37:08;;;;;;;10.07;8.63;;;10.10;99.90;;;;;;6293920;22;20168;-83
2021/05/14 01:39:35;;;;;;;10.27;8.43;;;10.10;99.90;;;;;;6295977;22;20195;-78
2021/05/14 01:42:03;;;;;;;10.67;7.77;;;10.00;99.90;;;;;;6295555;22;20176;-78
2021/05/14 01:44:30;;;;;;;9.43;8.27;;;10.00;99.90;;;;;;6296586;22;20680;-80
2021/05/14 01:46:56;;;;;;;10.63;8.33;;;10.00;99.90;;;;;;6296296;22;20183;-81
2021/05/14 01:49:23;;;;;;;8.20;7.40;;;10.00;99.90;;;;;;6293613;22;20168;-78
2021/05/14 01:51:50;;;;;;;11.83;8.67;;;10.00;99.90;;;;;;6295714;22;20172;-79
2021/05/14 01:54:17;;;;;;;9.43;8.27;;;10.10;99.90;;;;;;6297338;22;20284;-82
2021/05/14 01:56:49;;;;;;;9.20;8.00;;;10.00;99.90;;;;;;6297861;22;20172;-81
2021/05/14 01:59:16;;;;;;;7.90;7.07;;;10.10;99.90;;;;;;6299094;22;20176;-81
2021/05/14 02:01:43;;;;;;;9.83;8.70;;;10.10;99.90;;;;;;6298268;22;20612;-78
2021/05/14 02:04:09;;;;;;;10.03;8.90;;;10.00;99.90;;;;;;6297521;22;20196;-78
2021/05/14 02:06:35;;;;;;;9.47;8.47;;;10.00;99.90;;;;;;6296909;22;20190;-79
2021/05/14 02:09:03;;;;;;;10.23;8.37;;;10.10;99.90;;;;;;6296177;22;20631;-81
2021/05/14 02:11:29;;;;;;;15.40;8.70;;;10.10;99.90;;;;;;6296186;22;20176;-80
2021/05/14 02:13:56;;;;;;;8.97;8.10;;;10.10;99.90;;;;;;6296051;22;20196;-82
2021/05/14 02:16:22;;;;;;;9.40;7.73;;;10.10;99.90;;;;;;6295293;22;20472;-77
2021/05/14 02:18:49;;;;;;;8.57;7.63;;;10.10;99.90;;;;;;6295889;22;20184;-76
2021/05/14 02:21:15;;;;;;;9.13;8.07;;;10.10;99.90;;;;;;6296887;22;20560;-77
2021/05/14 02:23:41;;;;;;;9.80;8.80;;;10.00;99.90;;;;;;6295629;22;20192;-79
2021/05/14 02:26:08;;;;;;;10.20;8.67;;;10.10;99.90;;;;;;6296267;22;20176;-80
2021/05/14 02:28:34;;;;;;;7.90;7.10;;;10.20;99.90;;;;;;6297837;22;20212;-79
2021/05/14 02:31:02;;;;;;;8.47;7.57;;;10.10;99.90;;;;;;6296692;22;20263;-77
2021/05/14 02:33:29;;;;;;;8.30;7.00;;;10.10;99.90;;;;;;6297188;22;20168;-81
2021/05/14 02:35:55;;;;;;;9.67;7.90;;;10.10;99.90;;;;;;6296900;22;20172;-77
2021/05/14 02:38:22;;;;;;;9.90;7.63;;;10.20;99.90;;;;;;6297479;22;20176;-81
2021/05/14 02:40:48;;;;;;;9.33;7.90;;;10.20;99.90;;;;;;6296090;22;20919;-80
2021/05/14 02:43:15;;;;;;;11.67;8.13;;;10.10;99.90;;;;;;6296456;22;20178;-81
2021/05/14 02:45:42;;;;;;;8.17;7.23;;;10.10;99.90;;;;;;6296418;22;20183;-79
2021/05/14 02:48:10;;;;;;;9.57;7.93;;;10.10;99.90;;;;;;6296942;22;20233;-79
2021/05/14 02:50:36;;;;;;;8.37;7.27;;;10.20;99.90;;;;;;6296835;22;20176;-78
2021/05/14 02:53:03;;;;;;;11.30;8.40;;;10.20;99.90;;;;;;6295135;22;20455;-78
2021/05/14 02:55:29;;;;;;;9.63;7.97;;;10.10;99.90;;;;;;6296896;22;20172;-79
2021/05/14 02:57:56;;;;;;;8.77;7.80;;;10.10;99.90;;;;;;6296365;22;20789;-78
2021/05/14 03:00:23;;;;;;;8.47;7.53;;;10.10;99.90;;;;;;6297990;22;20172;-81
2021/05/14 03:02:50;;;;;;;10.03;7.87;;;10.20;99.90;;;;;;6297615;22;20175;-81
2021/05/14 03:05:17;;;;;;;8.77;7.87;;;10.20;99.90;;;;;;6296856;22;20383;-77
2021/05/14 03:07:43;;;;;;;8.70;7.80;;;10.20;99.90;;;;;;6296338;22;20842;-80
2021/05/14 03:10:11;;;;;;;9.40;7.27;;;10.20;99.90;;;;;;6296070;22;20572;-82
2021/05/14 03:12:37;;;;;;;9.10;8.17;;;10.20;99.90;;;;;;6296264;22;20749;-79
2021/05/14 03:15:06;;;;;;;10.90;8.00;;;10.10;99.90;;;;;;6295993;22;20199;-81
2021/05/14 03:17:32;;;;;;;9.23;7.83;;;10.20;99.90;;;;;;6294867;22;20191;-77
2021/05/14 03:19:58;;;;;;;8.70;7.83;;;10.20;99.90;;;;;;6296459;22;20192;-77
2021/05/14 03:22:25;;;;;;;8.03;7.33;;;10.20;99.90;;;;;;6296158;22;20191;-76
2021/05/14 03:24:52;;;;;;;10.90;6.97;;;10.10;99.90;;;;;;6297305;22;20192;-77
2021/05/14 03:27:18;;;;;;;10.10;7.70;;;10.10;99.90;;;;;;6296229;22;20172;-81
2021/05/14 03:29:44;;;;;;;8.80;7.90;;;10.10;99.90;;;;;;6297123;22;20172;-78
2021/05/14 03:32:10;;;;;;;9.53;7.77;;;10.10;99.90;;;;;;6296227;22;20168;-78
2021/05/14 03:34:37;;;;;;;8.33;7.23;;;10.00;99.90;;;;;;6296018;22;20172;-79
2021/05/14 03:37:04;;;;;;;9.90;8.03;;;10.10;99.90;;;;;;6297362;22;20175;-78
2021/05/14 03:39:31;;;;;;;9.30;8.20;;;10.10;99.90;;;;;;6296962;22;20168;-79
2021/05/14 03:42:12;;;;;;;13.77;8.43;;;10.20;99.90;;;;;;6294948;22;20186;-80
2021/05/14 03:44:38;;;;;;;9.67;7.47;;;10.10;99.90;;;;;;6296456;22;20188;-81
2021/05/14 03:47:05;;;;;;;9.70;8.23;;;10.10;99.90;;;;;;6294611;22;20172;-82
2021/05/14 03:49:33;;;;;;;9.37;7.97;;;10.10;99.90;;;;;;6295972;22;20250;-77
2021/05/14 03:52:00;;;;;;;9.37;7.77;;;10.10;99.90;;;;;;6296526;22;20168;-81
2021/05/14 03:54:26;;;;;;;10.47;8.00;;;10.20;99.90;;;;;;6294636;22;20172;-80
2021/05/14 03:56:53;;;;;;;8.77;7.87;;;10.10;99.90;;;;;;6296862;22;20171;-80
2021/05/14 03:59:20;;;;;;;9.23;7.47;;;10.20;99.90;;;;;;6297144;22;20179;-81
2021/05/14 04:01:46;;;;;;;9.40;7.27;;;10.20;99.90;;;;;;6295947;22;20203;-81
2021/05/14 04:04:13;;;;;;;10.23;7.17;;;10.20;99.90;;;;;;6296635;22;20607;-81
2021/05/14 04:06:39;;;;;;;10.07;7.57;;;10.10;99.90;;;;;;6296288;22;20221;-78
2021/05/14 04:09:06;;;;;;;8.93;7.47;;;10.10;99.90;;;;;;6294543;22;20953;-77
2021/05/14 04:14:32;;;;;;;9.60;7.70;;;10.10;99.90;;;;;;6280016;22;20260;-77
2021/05/14 04:17:00;;;;;;;7.83;7.03;;;10.10;99.90;;;;;;6294726;22;20164;-78
2021/05/14 04:19:26;;;;;;;9.23;7.60;;;10.00;99.90;;;;;;6295024;22;20201;-76
2021/05/14 04:21:53;;;;;;;9.03;7.13;;;10.00;99.90;;;;;;6295029;22;20172;-81
2021/05/14 04:24:21;;;;;;;10.23;7.87;;;10.00;99.90;;;;;;6294464;22;20199;-78
2021/05/14 04:26:48;;;;;;;8.17;6.93;;;10.00;99.90;;;;;;6295021;22;20184;-82
2021/05/14 04:29:14;;;;;;;9.83;7.50;;;10.00;99.90;;;;;;6294580;22;20175;-77
2021/05/14 04:31:43;;;;;;;10.77;7.33;;;10.10;99.90;;;;;;6295365;22;20191;-78
2021/05/14 04:34:10;;;;;;;8.57;7.73;;;10.10;99.90;;;;;;6296036;22;20214;-76
2021/05/14 04:36:37;;;;;;;11.23;7.73;;;10.10;99.90;;;;;;6294653;22;20465;-76
2021/05/14 04:39:03;;;;;;;9.10;8.03;;;10.10;99.90;;;;;;6294492;22;20183;-75
2021/05/14 04:41:30;;;;;;;10.20;7.90;;;10.10;99.90;;;;;;6294613;22;20167;-76
2021/05/14 04:43:56;;;;;;;12.37;8.47;;;10.20;99.90;;;;;;6294099;22;20254;-75
2021/05/14 04:46:22;;;;;;;10.37;8.13;;;10.20;99.90;;;;;;6294599;22;20235;-78
2021/05/14 04:48:49;;;;;;;7.93;7.13;;;10.20;99.90;;;;;;6295019;22;20172;-76
2021/05/14 04:51:16;;;;;;;11.93;8.80;;;10.20;99.90;;;;;;6294652;22;20182;-81
2021/05/14 04:53:43;;;;;;;8.57;7.73;;;10.10;99.90;;;;;;6296010;22;20179;-79
2021/05/14 04:56:09;;;;;;;9.80;7.53;;;10.10;99.90;;;;;;6295536;22;20233;-76
2021/05/14 04:58:36;;;;;;;10.10;8.30;;;10.10;99.90;;;;;;6295548;22;20279;-77
2021/05/14 05:01:03;;;;;;;8.97;7.30;;;10.10;99.90;;;;;;6294583;22;20172;-78
2021/05/14 05:03:30;;;;;;;8.40;7.60;;;10.20;99.90;;;;;;6294227;22;20172;-77
2021/05/14 05:05:57;;;;;;;8.83;7.93;;;10.20;99.90;;;;;;6294822;22;20232;-77
2021/05/14 05:08:23;;;;;;;10.30;7.37;;;10.20;99.90;;;;;;6294302;22;20165;-76
2021/05/14 05:10:49;;;;;;;11.10;8.10;;;10.20;99.90;;;;;;6294760;22;20560;-78
2021/05/14 05:13:16;;;;;;;10.37;7.93;;;10.20;99.90;;;;;;6293550;22;20179;-77
2021/05/14 05:15:42;;;;;;;9.57;8.67;;;10.30;99.90;;;;;;6295777;22;20196;-79
2021/05/14 05:18:09;;;;;;;12.27;8.60;;;10.30;99.90;;;;;;6295088;22;20176;-77
2021/05/14 05:20:35;;;;;;;9.77;8.23;;;10.30;99.90;;;;;;6294466;22;20203;-77
2021/05/14 05:23:02;;;;;;;9.47;8.33;;;10.20;99.90;;;;;;6294183;22;20225;-77
2021/05/14 05:25:28;;;;;;;8.23;7.37;;;10.20;99.90;;;;;;6294243;22;20187;-80
2021/05/14 05:27:55;;;;;;;10.30;7.60;;;10.20;99.90;;;;;;6298383;22;20178;-77
2021/05/14 05:30:23;;;;;;;11.07;8.60;;;10.30;99.90;;;;;;6298505;22;20171;-77
2021/05/14 05:32:50;;;;;;;9.97;7.60;;;10.30;99.90;;;;;;6297322;22;20203;-78
2021/05/14 05:35:16;;;;;;;8.87;7.10;;;10.40;99.90;;;;;;6299140;22;20168;-78
2021/05/14 05:37:42;;;;;;;8.70;7.80;;;10.40;99.90;;;;;;6297342;22;20176;-77
2021/05/14 05:40:10;;;;;;;11.60;8.33;;;10.30;99.90;;;;;;6295868;22;20168;-79
2021/05/14 05:42:37;;;;;;;8.73;7.37;;;10.30;99.90;;;;;;6297385;22;20172;-77
2021/05/14 05:45:05;;;;;;;9.80;8.33;;;10.30;99.90;;;;;;6296321;22;20215;-77
2021/05/14 05:47:34;;;;;;;9.27;7.67;;;10.40;99.90;;;;;;6325966;22;20170;-76
2021/05/14 05:50:00;;;;;;;9.43;8.30;;;10.40;99.90;;;;;;6328864;22;20175;-82
2021/05/14 05:52:27;;;;;;;8.47;7.00;;;10.40;99.90;;;;;;6329573;22;20172;-76
2021/05/14 05:54:53;;;;;;;8.40;7.60;;;10.40;99.90;;;;;;6327473;22;20216;-77
2021/05/14 05:57:20;;;;;;;8.93;7.37;;;10.50;99.90;;;;;;6329618;22;20178;-78
2021/05/14 05:59:46;;;;;;;10.20;7.73;;;10.40;99.90;;;;;;6328524;22;20206;-81
2021/05/14 06:02:13;;;;;;;7.87;7.07;;;10.50;99.90;;;;;;6328147;22;20811;-81
2021/05/14 06:04:39;;;;;;;9.47;7.93;;;10.50;99.90;;;;;;6328719;22;20198;-77
2021/05/14 06:07:06;;;;;;;10.60;7.90;;;10.50;99.90;;;;;;6330281;22;20214;-78
2021/05/14 06:09:33;;;;;;;9.80;8.23;;;10.60;99.90;;;;;;6328275;22;20178;-76
2021/05/14 06:12:00;;;;;;;9.57;8.13;;;10.60;99.90;;;;;;6329080;22;20587;-81
2021/05/14 06:14:27;;;;;;;9.30;7.77;;;10.60;99.90;;;;;;6328718;22;20245;-77
2021/05/14 06:16:54;;;;;;;9.03;7.90;;;10.60;99.90;;;;;;6327793;22;20172;-79
2021/05/14 06:19:24;;;;;;;9.57;7.90;;;10.70;99.90;;;;;;6315621;22;20196;-80
2021/05/14 06:21:51;;;;;;;10.07;7.93;;;10.60;99.90;;;;;;6297168;22;20206;-83
2021/05/14 06:24:18;;;;;;;9.77;7.87;;;10.70;99.90;;;;;;6297720;22;20200;-81
2021/05/14 06:26:46;;;;;;;7.57;6.87;;;10.70;99.90;;;;;;6297279;22;20248;-78
2021/05/14 06:29:13;;;;;;;9.57;7.43;;;10.70;99.90;;;;;;6295893;22;20214;-76
2021/05/14 06:31:40;;;;;;;8.73;7.30;;;10.80;99.90;;;;;;6296145;22;20175;-76
2021/05/14 06:34:07;;;;;;;8.70;7.60;;;10.80;99.90;;;;;;6295059;22;20627;-78
2021/05/14 06:36:33;;;;;;;9.33;6.97;;;10.80;99.90;;;;;;6294760;22;20176;-76
2021/05/14 06:38:59;;;;;;;8.70;7.10;;;10.80;99.90;;;;;;6295656;22;20168;-77
2021/05/14 06:41:27;;;;;;;12.10;7.87;;;10.80;99.90;;;;;;6296060;22;20191;-78
2021/05/14 06:43:53;;;;;;;9.33;7.30;;;10.90;99.90;;;;;;6294662;22;20616;-78
2021/05/14 06:46:19;;;;;;;7.23;6.53;;;10.90;99.90;;;;;;6296364;22;20395;-82
2021/05/14 06:49:41;;;;;;;8.30;7.50;;;10.90;99.90;;;;;;6273344;22;20487;-78
2021/05/14 06:52:08;;;;;;;8.33;7.40;;;10.90;99.90;;;;;;6171163;23;20171;-77
2021/05/14 06:54:35;;;;;;;10.93;7.00;;;10.90;99.90;;;;;;6270546;22;20172;-76
2021/05/14 06:57:02;;;;;;;8.27;7.07;;;10.90;99.90;;;;;;6295238;22;20179;-77
2021/05/14 06:59:28;;;;;;;8.53;7.13;;;10.90;99.90;;;;;;6296425;22;20176;-78
2021/05/14 07:01:55;;;;;;;7.00;6.30;;;10.90;99.90;;;;;;6296073;22;20172;-78
2021/05/14 07:04:21;;;;;;;8.00;6.27;;;10.90;99.90;;;;;;6294366;22;20253;-78
2021/05/14 07:06:47;;;;;;;8.73;6.37;;;10.90;99.90;;;;;;6246319;22;20167;-79
2021/05/14 07:09:14;;;;;;;6.50;5.90;;;10.90;99.90;;;;;;6296845;22;20167;-79
2021/05/14 07:11:41;;;;;;;9.30;7.57;;;10.90;99.90;;;;;;6295763;22;20168;-79
2021/05/14 07:14:07;;;;;;;7.00;6.30;;;11.00;99.90;;;;;;6296316;22;20173;-81
2021/05/14 07:16:33;;;;;;;7.27;6.57;;;11.00;99.90;;;;;;6297648;22;20176;-76
2021/05/14 07:19:00;;;;;;;9.33;7.60;;;11.00;99.90;;;;;;6295648;22;20953;-77
2021/05/14 07:21:26;;;;;;;7.27;6.57;;;11.10;99.90;;;;;;6295396;22;20164;-80
2021/05/14 07:23:52;;;;;;;9.37;6.33;;;11.10;99.90;;;;;;6295915;22;20176;-78
2021/05/14 07:26:19;;;;;;;6.57;5.53;;;11.20;99.90;;;;;;6295068;22;20180;-77
2021/05/14 07:28:46;;;;;;;8.23;5.50;;;11.20;99.90;;;;;;6295381;22;20233;-78
2021/05/14 07:31:12;;;;;;;7.77;4.77;;;11.20;99.90;;;;;;6295931;22;20176;-78
2021/05/14 07:33:40;;;;;;;6.10;4.50;;;11.20;99.90;;;;;;6294624;22;20172;-77
2021/05/14 07:36:06;;;;;;;7.63;4.30;;;11.20;99.90;;;;;;6295142;22;20172;-76
2021/05/14 07:38:33;;;;;;;5.63;3.90;;;11.10;99.90;;;;;;6295246;22;20171;-77
2021/05/14 07:40:59;;;;;;;6.80;4.33;;;11.20;99.90;;;;;;6294373;22;20172;-79
2021/05/14 07:43:26;;;;;;;7.67;4.50;;;11.20;99.90;;;;;;6293659;22;20215;-79
2021/05/14 07:45:52;;;;;;;7.13;4.43;;;11.30;99.90;;;;;;6293559;22;20576;-79
2021/05/14 07:48:21;;;;;;;6.70;4.30;;;11.40;99.90;;;;;;6293139;22;20172;-78
2021/05/14 07:50:48;;;;;;;6.73;4.40;;;11.40;99.90;;;;;;6294792;22;20484;-78
2021/05/14 07:53:14;;;;;;;6.73;4.70;;;11.50;99.90;;;;;;6293931;22;20164;-81
2021/05/14 07:55:41;;;;;;;7.43;4.70;;;11.40;99.90;;;;;;6295201;22;20233;-80
2021/05/14 07:58:07;;;;;;;7.30;4.23;;;11.40;99.90;;;;;;6295903;22;20172;-79
2021/05/14 08:00:34;;;;;;;7.77;4.67;;;11.40;99.90;;;;;;6294778;22;20332;-80
2021/05/14 08:03:01;;;;;;;7.07;3.93;;;11.40;99.90;;;;;;6292489;22;20803;-81
2021/05/14 08:05:27;;;;;;;8.27;4.33;;;11.50;99.90;;;;;;6295899;22;20187;-80
2021/05/14 08:08:01;;;;;;;5.60;4.07;;;11.50;99.90;;;;;;6296309;22;20225;-77
2021/05/14 08:10:27;;;;;;;6.53;4.03;;;11.50;99.90;;;;;;6295029;22;20225;-78
2021/05/14 08:12:54;;;;;;;6.00;3.73;;;11.50;99.90;;;;;;6295658;22;20535;-80
2021/05/14 08:15:21;;;;;;;6.23;3.97;;;11.60;99.90;;;;;;6296013;22;20175;-79
2021/05/14 08:17:50;;;;;;;7.37;4.27;;;11.70;99.90;;;;;;6296900;22;20195;-78
2021/05/14 08:20:17;;;;;;;7.80;4.13;;;11.70;99.90;;;;;;6296027;22;20188;-80
2021/05/14 08:22:44;;;;;;;11.37;4.50;;;11.80;99.90;;;;;;6295502;22;20253;-79
2021/05/14 08:25:12;;;;;;;6.40;4.17;;;11.80;99.90;;;;;;6295415;22;20602;-80
2021/05/14 08:27:38;;;;;;;7.60;4.83;;;11.70;99.90;;;;;;6296573;22;20176;-78
2021/05/14 08:30:06;;;;;;;7.50;5.30;;;11.70;99.90;;;;;;6294667;22;20179;-80
2021/05/14 08:32:32;;;;;;;9.20;5.60;;;11.80;99.90;;;;;;6295856;22;20351;-77
2021/05/14 08:35:00;;;;;;;7.07;5.33;;;11.80;99.90;;;;;;6296314;22;20187;-80
2021/05/14 08:37:26;;;;;;;9.00;6.03;;;11.80;99.90;;;;;;6294946;22;20226;-79
2021/05/14 08:39:53;;;;;;;9.63;5.83;;;11.80;99.90;;;;;;6296016;22;20160;-81
2021/05/14 08:42:19;;;;;;;11.03;5.57;;;11.80;99.90;;;;;;6296122;22;20434;-81
2021/05/14 08:44:45;;;;;;;10.10;6.57;;;11.80;99.90;;;;;;6296196;22;20199;-82
2021/05/14 08:47:13;;;;;;;9.93;5.73;;;11.80;99.90;;;;;;6296003;22;20176;-79
2021/05/14 08:49:39;;;;;;;9.50;5.63;;;11.90;99.90;;;;;;6294651;22;20176;-81
2021/05/14 08:52:10;;;;;;;8.40;5.30;;;11.90;99.90;;;;;;6295440;22;20211;-80
2021/05/14 08:54:42;;;;;;;7.77;4.67;;;11.80;99.90;;;;;;6295856;22;20568;-79
2021/05/14 08:57:08;;;;;;;4.97;4.47;;;11.90;99.90;;;;;;6295764;22;20214;-81
2021/05/14 08:59:34;;;;;;;6.73;5.80;;;11.90;99.90;;;;;;6296350;22;20342;-78
2021/05/14 09:02:01;;;;;;;7.67;6.60;;;12.00;99.90;;;;;;6298838;22;20175;-82
2021/05/14 09:04:30;;;;;;;7.40;5.50;;;12.10;99.90;;;;;;6296998;22;20833;-77
2021/05/14 09:06:57;;;;;;;5.10;4.60;;;12.10;99.90;;;;;;6296738;22;20229;-78
2021/05/14 09:09:24;;;;;;;5.83;5.23;;;12.20;99.90;;;;;;6297426;22;20173;-81
2021/05/14 09:11:52;;;;;;;10.03;6.97;;;12.20;99.90;;;;;;6297737;22;20171;-79
2021/05/14 09:14:33;;;;;;;11.43;6.23;;;12.20;99.90;;;;;;6297565;22;20172;-80
2021/05/14 09:17:06;;;;;;;7.37;5.50;;;12.30;99.90;;;;;;6296881;22;20191;-81
2021/05/14 09:19:33;;;;;;;7.93;5.97;;;12.20;99.90;;;;;;6297002;22;20195;-77
2021/05/14 09:22:11;;;;;;;5.73;5.10;;;12.30;99.90;;;;;;6297209;22;20176;-82
2021/05/14 09:24:39;;;;;;;7.03;5.40;;;12.30;99.90;;;;;;6297294;22;20187;-81
2021/05/14 09:27:26;;;;;;;9.83;6.90;;;12.30;99.90;;;;;;6296219;22;20255;-79
2021/05/14 09:29:53;;;;;;;9.80;6.00;;;12.40;99.90;;;;;;6296986;22;20171;-78
2021/05/14 09:32:25;;;;;;;8.07;5.70;;;12.50;99.90;;;;;;6296910;22;20171;-79
2021/05/14 09:34:53;;;;;;;10.77;6.83;;;12.60;99.90;;;;;;6297670;22;20194;-80
2021/05/14 09:37:20;;;;;;;11.73;5.50;;;12.70;99.90;;;;;;6297191;22;20164;-78
2021/05/14 09:39:47;;;;;;;8.00;5.70;;;12.70;99.90;;;;;;6296442;22;20175;-77
2021/05/14 09:42:29;;;;;;;9.77;5.60;;;12.90;99.90;;;;;;6298310;22;20270;-78
2021/05/14 09:45:13;;;;;;;7.57;5.90;;;13.00;99.90;;;;;;6296822;22;20693;-79
2021/05/14 09:47:39;;;;;;;10.07;5.43;;;13.20;99.90;;;;;;6297231;22;20168;-79
2021/05/14 09:50:33;;;;;;;7.83;5.77;;;13.20;99.90;;;;;;6296525;22;20643;-81
2021/05/14 09:53:09;;;;;;;6.30;5.60;;;13.20;99.90;;;;;;6295537;22;20281;-78
2021/05/14 09:55:37;;;;;;;8.77;5.20;;;13.30;99.90;;;;;;6295978;22;20650;-81
2021/05/14 09:58:17;;;;;;;6.07;5.07;;;13.20;99.90;;;;;;6295925;22;20178;-79
2021/05/14 10:00:44;;;;;;;9.57;5.93;;;13.20;99.90;;;;;;6296151;22;20164;-76
2021/05/14 10:03:11;;;;;;;7.13;4.70;;;13.30;99.90;;;;;;6296334;22;20175;-79
2021/05/14 10:05:38;;;;;;;9.20;5.73;;;13.40;99.90;;;;;;6296558;22;20222;-80
2021/05/14 10:08:06;;;;;;;10.70;7.03;;;13.40;99.90;;;;;;6294578;22;20172;-79
2021/05/14 10:10:34;;;;;;;9.10;5.50;;;13.30;99.90;;;;;;6293758;22;20271;-78
2021/05/14 10:13:02;;;;;;;8.97;6.10;;;13.20;99.90;;;;;;6294908;22;20172;-78
2021/05/14 10:15:29;;;;;;;7.87;5.40;;;13.30;99.90;;;;;;6293752;22;20742;-78
2021/05/14 10:17:56;;;;;;;9.60;6.60;;;13.30;99.90;;;;;;6295645;22;20190;-80
2021/05/14 10:20:27;;;;;;;9.57;6.07;;;13.30;99.90;;;;;;6293873;22;20585;-79
2021/05/14 10:22:56;;;;;;;10.23;6.30;;;13.30;99.90;;;;;;6294912;22;20160;-80
2021/05/14 10:25:47;;;;;;;8.10;6.27;;;13.30;99.90;;;;;;6296177;22;20261;-77
2021/05/14 10:28:17;;;;;;;9.70;5.80;;;13.20;99.90;;;;;;6294276;22;20187;-80
2021/05/14 10:31:22;;;;;;;11.10;7.40;;;13.10;99.90;;;;;;6295367;22;20191;-79
2021/05/14 10:33:51;;;;;;;10.47;6.20;;;13.00;99.90;;;;;;6295888;22;20209;-79
2021/05/14 10:36:51;;;;;;;7.53;5.17;;;12.90;99.90;;;;;;6294483;22;20171;-77
2021/05/14 10:39:21;;;;;;;7.57;5.83;;;13.00;99.90;;;;;;6294237;22;20164;-77
2021/05/14 10:41:52;;;;;;;13.20;6.97;;;13.10;99.90;;;;;;6295505;22;20202;-77
2021/05/14 10:44:47;;;;;;;7.33;5.60;;;13.20;99.90;;;;;;6294806;22;20207;-79
2021/05/14 10:47:46;;;;;;;11.67;6.33;;;13.20;99.90;;;;;;6294696;22;20172;-77
2021/05/14 10:50:32;;;;;;;8.67;5.60;;;13.20;99.90;;;;;;6286896;22;20172;-77
2021/05/14 10:53:21;;;;;;;9.93;6.43;;;13.20;99.90;;;;;;6294701;22;20160;-79
2021/05/14 10:55:48;;;;;;;6.17;5.07;;;13.30;99.90;;;;;;6295650;22;20967;-79
2021/05/14 10:58:43;;;;;;;7.87;5.07;;;13.30;99.90;;;;;;6294628;22;20231;-79
2021/05/14 11:01:29;;;;;;;5.53;4.13;;;13.40;99.90;;;;;;6294797;22;20631;-80
2021/05/14 11:03:56;;;;;;;9.00;5.97;;;13.40;99.90;;;;;;6294397;22;20175;-80
2021/05/14 11:06:22;;;;;;;8.63;5.73;;;13.40;99.90;;;;;;6295070;22;20195;-79
2021/05/14 11:08:59;;;;;;;9.40;6.33;;;13.40;99.90;;;;;;6294455;22;20636;-80
2021/05/14 11:11:26;;;;;;;9.10;6.10;;;13.60;99.90;;;;;;6293706;22;20168;-81
2021/05/14 11:13:52;;;;;;;9.43;5.13;;;13.60;99.90;;;;;;6295657;22;20172;-76
2021/05/14 11:16:39;;;;;;;7.77;4.60;;;13.70;99.90;;;;;;6294931;22;20164;-80
2021/05/14 11:19:20;;;;;;;6.83;3.90;;;13.70;99.90;;;;;;6293938;22;20192;-82
2021/05/14 11:21:59;;;;;;;6.47;3.53;;;13.90;99.90;;;;;;6296534;22;20209;-84
2021/05/14 11:24:31;;;;;;;11.63;4.93;;;13.90;99.90;;;;;;6295630;22;20172;-81
2021/05/14 11:27:03;;;;;;;11.27;4.27;;;14.00;99.90;;;;;;6297478;22;20172;-79
2021/05/14 11:29:31;;;;;;;4.90;3.77;;;14.00;99.90;;;;;;6297250;22;20179;-79
2021/05/14 11:32:27;;;;;;;6.13;3.30;;;14.20;99.90;;;;;;6295867;22;20186;-84
2021/05/14 11:35:13;;;;;;;8.43;4.03;;;14.20;99.90;;;;;;6296524;22;20168;-79
2021/05/14 11:37:50;;;;;;;6.87;3.93;;;14.30;99.90;;;;;;6296834;22;20187;-78
2021/05/14 11:40:18;;;;;;;12.97;4.93;;;14.50;99.90;;;;;;6295342;22;20167;-78
2021/05/14 11:42:46;;;;;;;11.87;6.17;;;14.60;99.90;;;;;;6296079;22;20440;-77
2021/05/14 11:45:18;;;;;;;10.80;5.30;;;14.60;99.90;;;;;;6295307;22;20209;-77
2021/05/14 11:47:48;;;;;;;7.67;4.27;;;14.60;99.90;;;;;;6296265;22;20176;-81
2021/05/14 11:50:32;;;;;;;11.23;4.83;;;14.70;99.90;;;;;;6291683;22;20752;-77
2021/05/14 11:53:00;;;;;;;11.00;6.47;;;14.80;99.90;;;;;;6293283;22;20591;-80
2021/05/14 11:55:26;;;;;;;9.87;5.53;;;14.70;99.90;;;;;;6295681;22;20182;-82
2021/05/14 11:57:55;;;;;;;10.50;5.90;;;14.80;99.90;;;;;;6294496;22;20184;-80
2021/05/14 12:00:26;;;;;;;9.97;4.60;;;14.90;99.90;;;;;;6295146;22;20172;-82
2021/05/14 12:02:55;;;;;;;9.70;5.50;;;14.90;99.90;;;;;;6294076;22;20183;-80
2021/05/14 12:05:24;;;;;;;8.83;5.63;;;14.80;99.90;;;;;;6295492;22;20496;-79
2021/05/14 12:07:50;;;;;;;9.57;5.50;;;14.90;99.90;;;;;;6295367;22;20176;-79
2021/05/14 12:10:17;;;;;;;9.43;6.47;;;14.80;99.90;;;;;;6294988;22;20163;-79
2021/05/14 12:12:45;;;;;;;12.17;5.90;;;14.70;99.90;;;;;;6296220;22;20186;-79
2021/05/14 12:15:22;;;;;;;10.07;6.40;;;14.70;99.90;;;;;;6294301;22;20335;-79
2021/05/14 12:17:51;;;;;;;11.50;6.07;;;14.80;99.90;;;;;;6295627;22;20269;-77
2021/05/14 12:20:29;;;;;;;10.80;5.90;;;14.90;99.90;;;;;;6294868;22;20686;-78
2021/05/14 12:22:58;;;;;;;12.83;7.70;;;15.10;99.90;;;;;;6295750;22;20164;-80
2021/05/14 12:25:25;;;;;;;11.87;6.93;;;15.00;99.90;;;;;;6294759;22;20198;-78
2021/05/14 12:27:52;;;;;;;12.97;6.50;;;15.00;99.90;;;;;;6295108;22;20172;-80
2021/05/14 12:30:19;;;;;;;13.97;7.00;;;15.00;99.90;;;;;;6295503;22;20191;-80
2021/05/14 12:32:56;;;;;;;10.90;6.60;;;15.10;99.90;;;;;;6294696;22;20198;-79
2021/05/14 12:35:24;;;;;;;12.37;6.60;;;15.20;99.90;;;;;;6293867;22;20974;-80
2021/05/14 12:37:58;;;;;;;13.57;7.33;;;15.40;99.90;;;;;;6295324;22;20176;-80
2021/05/14 12:40:33;;;;;;;15.20;7.80;;;15.70;99.90;;;;;;6294529;22;20176;-79
2021/05/14 12:43:10;;;;;;;10.13;6.53;;;15.80;99.90;;;;;;6293764;22;20236;-80
2021/05/14 12:45:38;;;;;;;9.40;5.80;;;15.90;99.90;;;;;;6294282;22;20610;-79
2021/05/14 12:48:06;;;;;;;8.27;6.25;;;16.00;99.90;;;;;;6294531;22;20870;-78
2021/05/14 12:50:34;;;;;;;11.60;6.53;;;16.20;99.90;;;;;;6294603;22;20208;-79
2021/05/14 12:53:01;;;;;;;7.30;5.07;;;16.20;99.90;;;;;;6295065;22;20218;-79
2021/05/14 12:55:27;;;;;;;9.30;5.60;;;16.40;99.90;;;;;;6294442;22;20560;-79